createdAt,value
2022-09-23T00:01:42.081Z,1.45
2022-09-23T00:04:12.288Z,1.65
2022-09-23T00:06:44.277Z,1.08
2022-09-23T00:09:12.256Z,2.78
2022-09-23T00:11:40.289Z,1.67
2022-09-23T00:14:08.299Z,1.33
2022-09-23T00:16:36.489Z,2.00
2022-09-23T00:19:06.292Z,1.05
2022-09-23T00:21:34.045Z,1.00
2022-09-23T00:24:02.761Z,2.20
2022-09-23T00:29:03.285Z,0.98
2022-09-23T00:31:31.956Z,2.88
2022-09-23T00:34:02.397Z,1.73
2022-09-23T00:36:32.626Z,0.95
2022-09-23T00:39:01.054Z,2.15
2022-09-23T00:41:29.041Z,2.20
2022-09-23T00:43:59.299Z,1.58
2022-09-23T00:46:30.756Z,2.42
2022-09-23T00:49:07.172Z,0.90
2022-09-23T00:51:45.550Z,2.22
2022-09-23T00:54:13.891Z,0.95
2022-09-23T00:56:41.791Z,1.85
2022-09-23T00:59:10.991Z,1.73
2022-09-23T01:01:39.366Z,5.43
2022-09-23T01:04:08.193Z,1.08
2022-09-23T01:06:35.944Z,0.90
2022-09-23T01:09:05.475Z,1.58
2022-09-23T01:11:49.188Z,2.38
2022-09-23T01:14:35.621Z,0.93
2022-09-23T01:17:09.560Z,1.83
2022-09-23T01:20:12.867Z,1.42
2022-09-23T01:23:11.070Z,2.25
2022-09-23T01:26:11.449Z,1.50
2022-09-23T01:28:59.819Z,1.33
2022-09-23T01:31:38.188Z,1.27
2022-09-23T01:34:11.788Z,1.40
2022-09-23T01:36:44.770Z,1.98
2022-09-23T01:41:58.590Z,1.80
2022-09-23T01:44:35.163Z,2.45
2022-09-23T01:47:11.289Z,1.73
2022-09-23T01:49:45.525Z,4.13
2022-09-23T01:52:18.454Z,0.90
2022-09-23T01:54:52.271Z,1.02
2022-09-23T01:57:28.066Z,2.13
2022-09-23T02:00:01.362Z,2.57
2022-09-23T02:02:50.053Z,0.77
2022-09-23T02:08:00.082Z,1.17
2022-09-23T02:10:33.456Z,1.20
2022-09-23T02:13:07.759Z,1.00
2022-09-23T02:15:42.160Z,0.60
2022-09-23T02:18:15.555Z,1.67
2022-09-23T02:20:45.059Z,1.67
2022-09-23T02:23:16.043Z,1.75
2022-09-23T02:25:53.281Z,1.15
2022-09-23T02:28:31.086Z,2.05
2022-09-23T02:31:07.901Z,2.25
2022-09-23T02:33:43.999Z,2.22
2022-09-23T02:36:21.910Z,1.92
2022-09-23T02:38:57.707Z,1.38
2022-09-23T02:41:32.511Z,0.93
2022-09-23T02:44:05.082Z,0.90
2022-09-23T02:46:33.849Z,1.08
2022-09-23T02:49:11.295Z,1.50
2022-09-23T02:51:40.278Z,2.95
2022-09-23T02:54:10.934Z,0.90
2022-09-23T02:56:39.338Z,0.60
2022-09-23T02:59:13.725Z,0.82
2022-09-23T03:01:50.022Z,0.95
2022-09-23T03:04:31.958Z,0.80
2022-09-23T03:07:06.526Z,1.77
2022-09-23T03:09:40.042Z,1.67
2022-09-23T03:12:21.722Z,1.02
2022-09-23T03:14:54.213Z,1.40
2022-09-23T03:17:29.116Z,2.17
2022-09-23T03:20:04.784Z,1.30
2022-09-23T03:22:35.759Z,1.98
2022-09-23T03:25:08.677Z,2.10
2022-09-23T03:27:39.275Z,7.43
2022-09-23T03:30:09.098Z,19.80
2022-09-23T03:32:38.615Z,11.75
2022-09-23T03:35:09.076Z,9.77
2022-09-23T03:37:42.355Z,4.78
2022-09-23T03:40:15.535Z,4.07
2022-09-23T03:42:43.746Z,3.50
2022-09-23T03:45:18.569Z,4.20
2022-09-23T03:47:46.557Z,6.05
2022-09-23T03:50:17.541Z,3.88
2022-09-23T03:52:45.381Z,3.70
2022-09-23T03:55:13.248Z,2.75
2022-09-23T03:57:41.049Z,2.92
2022-09-23T04:00:10.121Z,3.08
2022-09-23T04:03:01.134Z,3.55
2022-09-23T04:05:30.896Z,17.30
2022-09-23T04:07:58.824Z,35.03
2022-09-23T04:10:26.868Z,59.95
2022-09-23T04:12:54.768Z,56.30
2022-09-23T04:17:55.550Z,34.10
2022-09-23T04:22:52.881Z,21.67
2022-09-23T04:25:20.888Z,25.73
2022-09-23T04:27:48.947Z,18.77
2022-09-23T04:30:17.345Z,17.00
2022-09-23T04:32:45.373Z,12.88
2022-09-23T04:35:13.369Z,12.02
2022-09-23T04:37:41.413Z,11.95
2022-09-23T04:40:11.431Z,10.80
2022-09-23T04:42:39.597Z,7.32
2022-09-23T04:45:23.711Z,4.45
2022-09-23T04:47:51.845Z,5.55
2022-09-23T04:50:19.793Z,5.60
2022-09-23T04:52:48.081Z,3.50
2022-09-23T04:55:18.256Z,5.93
2022-09-23T04:57:46.276Z,4.80
2022-09-23T05:00:15.620Z,5.50
2022-09-23T05:02:44.822Z,8.93
2022-09-23T05:05:13.489Z,6.93
2022-09-23T05:07:41.532Z,6.95
2022-09-23T05:10:09.907Z,7.15
2022-09-23T05:12:39.379Z,6.68
2022-09-23T05:15:07.871Z,7.03
2022-09-23T05:20:11.675Z,8.57
2022-09-23T05:22:39.632Z,6.63
2022-09-23T05:25:08.228Z,5.72
2022-09-23T05:27:36.839Z,5.22
2022-09-23T05:30:07.818Z,4.88
2022-09-23T05:32:35.966Z,5.85
2022-09-23T05:35:04.899Z,5.43
2022-09-23T05:37:33.644Z,5.00
2022-09-23T05:40:01.940Z,5.43
2022-09-23T05:42:30.059Z,3.05
2022-09-23T05:44:58.005Z,5.18
2022-09-23T05:47:27.389Z,5.32
2022-09-23T05:49:59.991Z,4.03
2022-09-23T05:52:28.639Z,3.58
2022-09-23T05:54:56.610Z,5.72
2022-09-23T05:57:24.755Z,8.73
2022-09-23T05:59:52.625Z,9.95
2022-09-23T06:02:20.604Z,11.80
2022-09-23T06:04:50.069Z,13.50
2022-09-23T06:07:18.210Z,12.32
2022-09-23T06:09:46.132Z,12.02
2022-09-23T06:12:14.496Z,9.75
2022-09-23T06:14:42.482Z,8.15
2022-09-23T06:17:10.440Z,7.00
2022-09-23T06:19:38.421Z,3.58
2022-09-23T06:22:07.958Z,4.13
2022-09-23T06:24:35.832Z,4.47
2022-09-23T06:27:03.946Z,3.42
2022-09-23T06:29:33.423Z,6.15
2022-09-23T06:32:01.972Z,5.28
2022-09-23T06:34:30.964Z,4.63
2022-09-23T06:37:09.897Z,6.38
2022-09-23T06:39:44.247Z,4.45
2022-09-23T06:42:12.140Z,2.92
2022-09-23T06:44:40.137Z,2.30
2022-09-23T06:47:08.148Z,13.02
2022-09-23T06:49:36.011Z,5.10
2022-09-23T06:52:05.401Z,5.03
2022-09-23T06:54:33.536Z,5.13
2022-09-23T06:57:03.299Z,5.95
2022-09-23T06:59:31.392Z,6.07
2022-09-23T07:01:59.419Z,6.13
2022-09-23T07:04:29.427Z,11.88
2022-09-23T07:06:57.738Z,11.35
2022-09-23T07:09:26.237Z,10.40
2022-09-23T07:11:54.229Z,12.43
2022-09-23T07:14:26.078Z,18.85
2022-09-23T07:16:54.210Z,16.23
2022-09-23T07:19:22.245Z,19.70
2022-09-23T07:21:50.323Z,15.38
2022-09-23T07:24:18.395Z,16.88
2022-09-23T07:26:46.444Z,19.95
2022-09-23T07:29:15.143Z,17.98
2022-09-23T07:31:44.969Z,17.92
2022-09-23T07:34:13.233Z,15.82
2022-09-23T07:36:41.717Z,15.48
2022-09-23T07:39:11.504Z,9.48
2022-09-23T07:41:39.882Z,8.63
2022-09-23T07:44:09.086Z,7.38
2022-09-23T07:46:37.558Z,6.47
2022-09-23T07:49:07.418Z,4.75
2022-09-23T07:51:37.407Z,3.90
2022-09-23T07:54:08.194Z,4.63
2022-09-23T07:56:37.633Z,2.92
2022-09-23T07:59:09.149Z,5.93
2022-09-23T08:01:39.890Z,6.68
2022-09-23T08:04:13.619Z,3.58
2022-09-23T08:06:42.935Z,4.07
2022-09-23T08:09:11.807Z,3.03
2022-09-23T08:11:42.250Z,5.53
2022-09-23T08:14:10.781Z,1.70
2022-09-23T08:16:40.299Z,4.82
2022-09-23T08:19:08.889Z,4.45
2022-09-23T08:21:39.574Z,3.72
2022-09-23T08:24:08.432Z,6.43
2022-09-23T08:26:36.835Z,3.50
2022-09-23T08:29:05.130Z,6.65
2022-09-23T08:31:33.396Z,2.75
2022-09-23T08:34:01.689Z,3.97
2022-09-23T08:36:29.686Z,4.10
2022-09-23T08:38:59.061Z,2.53
2022-09-23T08:41:36.293Z,2.45
2022-09-23T08:44:12.451Z,3.38
2022-09-23T08:46:46.367Z,2.38
2022-09-23T08:49:20.782Z,2.72
2022-09-23T08:51:50.882Z,5.78
2022-09-23T08:54:20.279Z,2.70
2022-09-23T08:56:52.454Z,2.75
2022-09-23T08:59:28.993Z,4.28
2022-09-23T09:02:00.750Z,3.90
2022-09-23T09:04:39.469Z,3.03
2022-09-23T09:10:11.881Z,5.65
2022-09-23T09:12:43.797Z,3.15
2022-09-23T09:15:15.355Z,4.10
2022-09-23T09:17:52.478Z,3.03
2022-09-23T09:20:26.016Z,2.60
2022-09-23T09:22:57.978Z,2.85
2022-09-23T09:25:38.235Z,1.20
2022-09-23T09:28:16.871Z,4.65
2022-09-23T09:30:48.506Z,1.38
2022-09-23T09:33:19.183Z,2.40
2022-09-23T09:36:15.004Z,1.52
2022-09-23T09:38:43.122Z,1.80
2022-09-23T09:41:16.352Z,1.85
2022-09-23T09:43:53.652Z,1.95
2022-09-23T09:46:36.434Z,2.30
2022-09-23T09:49:12.122Z,1.60
2022-09-23T09:51:42.332Z,1.58
2022-09-23T09:54:18.509Z,1.38
2022-09-23T09:56:50.022Z,2.28
2022-09-23T09:59:23.227Z,1.75
2022-09-23T10:02:11.246Z,1.63
2022-09-23T10:04:39.694Z,1.23
2022-09-23T10:07:12.666Z,3.22
2022-09-23T10:09:48.462Z,1.35
2022-09-23T10:12:20.074Z,2.00
2022-09-23T10:14:53.419Z,2.13
2022-09-23T10:17:24.461Z,1.83
2022-09-23T10:20:01.079Z,1.48
2022-09-23T10:25:03.899Z,2.75
2022-09-23T10:27:36.148Z,4.88
2022-09-23T10:30:07.646Z,2.50
2022-09-23T10:32:38.162Z,3.08
2022-09-23T10:35:15.276Z,4.95
2022-09-23T10:37:46.422Z,3.55
2022-09-23T10:40:37.389Z,4.30
2022-09-23T10:43:42.521Z,2.17
2022-09-23T10:46:36.590Z,2.42
2022-09-23T10:49:33.975Z,2.08
2022-09-23T10:52:20.001Z,3.60
2022-09-23T10:55:00.769Z,3.08
2022-09-23T10:57:43.141Z,3.05
2022-09-23T11:00:23.535Z,2.42
2022-09-23T11:03:15.339Z,3.78
2022-09-23T11:05:51.444Z,4.38
2022-09-23T11:08:52.022Z,2.90
2022-09-23T11:11:34.336Z,2.47
2022-09-23T11:14:17.370Z,3.67
2022-09-23T11:16:58.535Z,2.33
2022-09-23T11:20:02.722Z,1.63
2022-09-23T11:22:44.302Z,2.45
2022-09-23T11:25:34.943Z,5.22
2022-09-23T11:28:23.600Z,3.25
2022-09-23T11:30:59.641Z,1.92
2022-09-23T11:33:57.081Z,2.55
2022-09-23T11:36:31.892Z,1.77
2022-09-23T11:39:06.302Z,2.63
2022-09-23T11:41:38.803Z,2.00
2022-09-23T11:44:15.493Z,2.55
2022-09-23T11:46:47.227Z,1.08
2022-09-23T11:49:25.485Z,0.93
2022-09-23T11:52:05.196Z,1.33
2022-09-23T11:54:40.856Z,2.92
2022-09-23T11:57:17.169Z,3.07
2022-09-23T11:59:51.440Z,2.40
2022-09-23T12:02:30.493Z,1.63
2022-09-23T12:05:07.315Z,1.42
2022-09-23T12:07:51.544Z,2.38
2022-09-23T12:10:19.343Z,1.17
2022-09-23T12:12:56.206Z,4.18
2022-09-23T12:15:39.707Z,1.70
2022-09-23T12:18:36.206Z,3.47
2022-09-23T12:21:45.767Z,1.03
2022-09-23T12:24:27.953Z,2.15
2022-09-23T12:27:07.885Z,1.40
2022-09-23T12:29:38.137Z,2.05
2022-09-23T12:32:10.205Z,1.13
2022-09-23T12:34:41.836Z,3.65
2022-09-23T12:37:11.428Z,0.93
2022-09-23T12:39:39.907Z,3.03
2022-09-23T12:42:17.030Z,2.08
2022-09-23T12:44:47.818Z,1.90
2022-09-23T12:47:37.098Z,1.20
2022-09-23T12:50:38.232Z,1.40
2022-09-23T12:53:51.579Z,5.07
2022-09-23T12:56:24.590Z,0.68
2022-09-23T12:59:14.332Z,2.70
2022-09-23T13:01:42.876Z,2.42
2022-09-23T13:04:48.242Z,1.70
2022-09-23T13:07:17.240Z,1.70
2022-09-23T13:09:49.278Z,1.70
2022-09-23T13:12:23.772Z,2.40
2022-09-23T13:14:55.025Z,2.28
2022-09-23T13:17:26.171Z,2.70
2022-09-23T13:20:04.149Z,1.38
2022-09-23T13:22:57.713Z,1.67
2022-09-23T13:25:27.703Z,2.20
2022-09-23T13:28:02.266Z,3.80
2022-09-23T13:30:30.255Z,2.92
2022-09-23T13:33:06.503Z,4.40
2022-09-23T13:35:37.574Z,6.00
2022-09-23T13:38:12.842Z,5.63
2022-09-23T13:40:45.235Z,2.25
2022-09-23T13:43:22.494Z,2.15
2022-09-23T13:45:51.642Z,0.70
2022-09-23T13:48:21.083Z,2.50
2022-09-23T13:50:50.722Z,0.65
2022-09-23T13:53:23.834Z,6.45
2022-09-23T13:56:02.004Z,0.98
2022-09-23T13:58:33.365Z,1.35
2022-09-23T14:01:01.484Z,0.50
2022-09-23T14:03:36.178Z,2.58
2022-09-23T14:06:09.685Z,3.03
2022-09-23T14:09:02.659Z,0.80
2022-09-23T14:11:33.275Z,1.83
2022-09-23T14:14:07.921Z,1.40
2022-09-23T14:16:38.602Z,1.38
2022-09-23T14:19:08.348Z,1.10
2022-09-23T14:21:39.981Z,0.82
2022-09-23T14:24:18.997Z,1.35
2022-09-23T14:26:50.221Z,0.75
2022-09-23T14:29:23.637Z,0.90
2022-09-23T14:31:57.163Z,0.90
2022-09-23T14:34:45.305Z,1.13
2022-09-23T14:37:47.279Z,1.50
2022-09-23T14:40:18.304Z,2.38
2022-09-23T14:42:48.935Z,1.67
2022-09-23T14:45:21.930Z,0.90
2022-09-23T14:47:52.152Z,3.83
2022-09-23T14:50:38.043Z,0.50
2022-09-23T14:53:33.348Z,1.30
2022-09-23T14:56:25.546Z,1.17
2022-09-23T14:58:55.353Z,1.77
2022-09-23T15:01:37.372Z,1.25
2022-09-23T15:04:15.405Z,2.05
2022-09-23T15:06:48.439Z,2.28
2022-09-23T15:09:21.804Z,1.58
2022-09-23T15:11:52.594Z,1.33
2022-09-23T15:14:37.196Z,1.65
2022-09-23T15:17:30.672Z,2.63
2022-09-23T15:20:00.993Z,4.20
2022-09-23T15:22:29.011Z,5.65
2022-09-23T15:25:14.858Z,2.70
2022-09-23T15:27:55.398Z,2.63
2022-09-23T15:30:23.410Z,1.77
2022-09-23T15:32:53.792Z,1.65
2022-09-23T15:35:25.716Z,2.83
2022-09-23T15:37:58.386Z,6.10
2022-09-23T15:40:29.182Z,5.88
2022-09-23T15:42:59.115Z,6.70
2022-09-23T15:45:33.517Z,4.65
2022-09-23T15:48:08.386Z,4.18
2022-09-23T15:50:37.062Z,3.05
2022-09-23T15:53:06.174Z,3.47
2022-09-23T15:55:34.018Z,2.78
2022-09-23T15:58:01.858Z,3.40
2022-09-23T16:00:29.683Z,2.15
2022-09-23T16:02:59.588Z,5.07
2022-09-23T16:08:09.695Z,2.03
2022-09-23T16:10:38.311Z,2.85
2022-09-23T16:13:11.559Z,2.55
2022-09-23T16:15:39.960Z,4.32
2022-09-23T16:18:10.012Z,3.45
2022-09-23T16:20:42.580Z,1.60
2022-09-23T16:23:36.319Z,2.53
2022-09-23T16:26:07.124Z,2.65
2022-09-23T16:28:35.720Z,3.70
2022-09-23T16:31:04.029Z,5.30
2022-09-23T16:33:32.271Z,2.42
2022-09-23T16:36:02.734Z,2.38
2022-09-23T16:38:32.371Z,4.82
2022-09-23T16:41:01.035Z,1.52
2022-09-23T16:43:33.141Z,1.95
2022-09-23T16:46:03.247Z,5.28
2022-09-23T16:48:31.592Z,1.08
2022-09-23T16:51:09.422Z,1.33
2022-09-23T16:53:39.876Z,4.20
2022-09-23T16:56:09.887Z,2.75
2022-09-23T16:58:38.622Z,2.72
2022-09-23T17:01:45.991Z,3.17
2022-09-23T17:04:15.404Z,3.58
2022-09-23T17:06:46.537Z,4.93
2022-09-23T17:09:14.610Z,12.15
2022-09-23T17:11:48.531Z,7.10
2022-09-23T17:14:17.203Z,15.30
2022-09-23T17:16:46.017Z,11.00
2022-09-23T17:19:14.162Z,9.82
2022-09-23T17:21:42.976Z,8.52
2022-09-23T17:24:12.592Z,10.50
2022-09-23T17:26:41.152Z,9.57
2022-09-23T17:29:11.330Z,14.30
2022-09-23T17:31:39.746Z,10.50
2022-09-23T17:34:07.808Z,10.02
2022-09-23T17:36:36.172Z,8.63
2022-09-23T17:39:05.696Z,7.05
2022-09-23T17:41:35.442Z,6.82
2022-09-23T17:44:04.974Z,7.93
2022-09-23T17:46:32.902Z,9.80
2022-09-23T17:49:00.885Z,9.77
2022-09-23T17:51:30.074Z,10.93
2022-09-23T17:53:59.281Z,16.15
2022-09-23T17:56:30.505Z,17.58
2022-09-23T17:59:02.493Z,20.90
2022-09-23T18:01:31.107Z,12.48
2022-09-23T18:04:00.774Z,12.25
2022-09-23T18:06:31.948Z,11.60
2022-09-23T18:09:04.792Z,9.02
2022-09-23T18:11:34.910Z,7.28
2022-09-23T18:14:06.774Z,5.18
2022-09-23T18:16:37.790Z,8.30
2022-09-23T18:19:07.466Z,5.68
2022-09-23T18:21:38.194Z,7.32
2022-09-23T18:24:28.600Z,7.55
2022-09-23T18:27:00.271Z,9.82
2022-09-23T18:29:30.675Z,12.68
2022-09-23T18:32:01.809Z,6.93
2022-09-23T18:34:30.486Z,6.28
2022-09-23T18:36:58.588Z,5.53
2022-09-23T18:39:26.895Z,7.93
2022-09-23T18:41:55.713Z,4.95
2022-09-23T18:44:30.601Z,6.78
2022-09-23T18:47:00.629Z,4.18
2022-09-23T18:49:47.732Z,7.65
2022-09-23T18:54:45.030Z,7.25
2022-09-23T18:57:15.222Z,7.78
2022-09-23T18:59:44.715Z,7.35
2022-09-23T19:02:15.829Z,4.90
2022-09-23T19:04:44.713Z,7.30
2022-09-23T19:07:30.237Z,5.68
2022-09-23T19:09:58.613Z,4.68
2022-09-23T19:12:26.608Z,9.77
2022-09-23T19:14:56.224Z,12.57
2022-09-23T19:17:26.526Z,13.00
2022-09-23T19:19:55.572Z,10.48
2022-09-23T19:22:23.660Z,13.48
2022-09-23T19:24:53.001Z,13.25
2022-09-23T19:27:21.253Z,13.35
2022-09-23T19:29:50.655Z,16.02
2022-09-23T19:32:18.987Z,17.42
2022-09-23T19:34:51.284Z,16.48
2022-09-23T19:37:19.865Z,10.13
2022-09-23T19:39:48.227Z,9.35
2022-09-23T19:42:17.284Z,8.00
2022-09-23T19:44:45.659Z,14.27
2022-09-23T19:47:21.450Z,9.15
2022-09-23T19:49:52.359Z,8.63
2022-09-23T19:52:22.500Z,4.18
2022-09-23T19:54:51.109Z,7.00
2022-09-23T19:57:20.026Z,5.63
2022-09-23T19:59:48.413Z,5.93
2022-09-23T20:02:17.124Z,6.63
2022-09-23T20:04:45.873Z,5.05
2022-09-23T20:07:54.086Z,4.82
2022-09-23T20:12:51.255Z,6.20
2022-09-23T20:15:19.996Z,6.70
2022-09-23T20:17:48.215Z,6.97
2022-09-23T20:20:16.552Z,5.03
2022-09-23T20:22:44.497Z,5.10
2022-09-23T20:25:14.071Z,5.72
2022-09-23T20:27:43.495Z,6.90
2022-09-23T20:30:12.245Z,5.38
2022-09-23T20:32:44.024Z,7.50
2022-09-23T20:35:13.921Z,4.85
2022-09-23T20:37:41.968Z,3.53
2022-09-23T20:40:10.508Z,4.68
2022-09-23T20:42:39.777Z,5.03
2022-09-23T20:45:11.747Z,6.18
2022-09-23T20:47:40.080Z,6.35
2022-09-23T20:50:09.327Z,6.13
2022-09-23T20:55:10.728Z,4.40
2022-09-23T20:57:38.657Z,4.45
2022-09-23T21:00:08.128Z,3.50
2022-09-23T21:02:37.489Z,5.95
2022-09-23T21:05:07.167Z,4.07
2022-09-23T21:07:36.549Z,7.82
2022-09-23T21:10:07.101Z,1.80
2022-09-23T21:12:35.532Z,2.60
2022-09-23T21:15:10.149Z,3.88
2022-09-23T21:18:16.323Z,5.32
2022-09-23T21:20:54.975Z,6.57
2022-09-23T21:23:26.366Z,4.25
2022-09-23T21:25:59.918Z,6.15
2022-09-23T21:28:31.228Z,7.03
2022-09-23T21:30:59.987Z,6.10
2022-09-23T21:33:30.918Z,3.70
2022-09-23T21:36:03.707Z,5.68
2022-09-23T21:38:31.685Z,7.68
2022-09-23T21:41:00.732Z,9.80
2022-09-23T21:43:32.736Z,5.40
2022-09-23T21:46:06.537Z,9.68
2022-09-23T21:48:38.273Z,8.18
2022-09-23T21:51:08.394Z,7.72
2022-09-23T21:53:37.065Z,6.07
2022-09-23T21:56:07.627Z,5.65
2022-09-23T21:58:37.050Z,6.55
2022-09-23T22:01:08.529Z,13.13
2022-09-23T22:03:38.553Z,6.60
2022-09-23T22:06:08.686Z,8.45
2022-09-23T22:08:39.510Z,10.63
2022-09-23T22:11:30.052Z,6.03
2022-09-23T22:14:02.130Z,10.00
2022-09-23T22:16:30.851Z,6.45
2022-09-23T22:19:06.736Z,6.18
2022-09-23T22:21:36.773Z,6.50
2022-09-23T22:24:05.796Z,9.02
2022-09-23T22:26:36.144Z,7.40
2022-09-23T22:29:23.340Z,7.68
2022-09-23T22:32:09.520Z,7.20
2022-09-23T22:34:51.430Z,7.57
2022-09-23T22:37:22.203Z,8.50
2022-09-23T22:39:50.117Z,7.97
2022-09-23T22:42:18.294Z,6.03
2022-09-23T22:44:46.984Z,6.47
2022-09-23T22:47:16.184Z,8.25
2022-09-23T22:49:46.682Z,8.60
2022-09-23T22:52:24.649Z,5.10
2022-09-23T22:54:56.520Z,5.53
2022-09-23T22:57:24.288Z,6.72
2022-09-23T22:59:52.300Z,6.47
2022-09-23T23:02:22.727Z,5.70
2022-09-23T23:04:52.218Z,10.43
2022-09-23T23:07:21.676Z,8.77
2022-09-23T23:09:50.437Z,5.05
2022-09-23T23:12:20.447Z,6.22
2022-09-23T23:14:49.262Z,9.05
2022-09-23T23:17:17.768Z,8.55
2022-09-23T23:19:45.639Z,5.88
2022-09-23T23:22:15.050Z,6.55
2022-09-23T23:24:43.256Z,6.43
2022-09-23T23:27:11.117Z,5.75
2022-09-23T23:29:39.080Z,5.05
2022-09-23T23:32:07.847Z,4.60
2022-09-23T23:34:35.749Z,5.53
2022-09-23T23:37:03.460Z,6.80
2022-09-23T23:39:33.885Z,6.90
2022-09-23T23:42:01.494Z,6.25
2022-09-23T23:47:04.542Z,5.75
2022-09-23T23:49:32.180Z,5.65
2022-09-23T23:51:59.864Z,5.60
2022-09-23T23:54:27.513Z,5.82
2022-09-23T23:56:56.513Z,3.70
2022-09-23T23:59:24.119Z,3.50
